Time;durP1;ratioP1;P1;durP2;ratioP2;P2;SDS_P1;SDS_P2;PMS_P1;PMS_P2;Temp;Humidity;BMP_temperature;BMP_pressure;BME280_temperature;BME280_humidity;BME280_pressure;Samples;Min_cycle;Max_cycle;Signal;HPM_P1;HPM_P2
2022/07/17 00:01:13;;;;;;;5.32;4.00;;;;;;;20.63;59.76;96672.97;5136984;27;20049;-61
2022/07/17 00:03:40;;;;;;;6.63;4.05;;;;;;;20.61;60.02;96687.31;5137267;27;20480;-61
2022/07/17 00:06:07;;;;;;;7.28;4.68;;;;;;;20.54;60.57;96676.31;5137231;27;20059;-61
2022/07/17 00:08:34;;;;;;;4.43;3.92;;;;;;;20.51;60.67;96677.41;5137167;27;20054;-61
2022/07/17 00:11:02;;;;;;;7.07;4.30;;;;;;;20.51;60.78;96681.84;5137209;27;20103;-61
2022/07/17 00:13:29;;;;;;;7.10;3.95;;;;;;;20.48;60.79;96679.44;5137088;27;20054;-61
2022/07/17 00:15:58;;;;;;;4.80;3.90;;;;;;;20.48;60.75;96676.78;5136954;27;20058;-61
2022/07/17 00:18:25;;;;;;;5.35;4.30;;;;;;;20.48;60.71;96688.25;5136300;27;20039;-61
2022/07/17 00:20:52;;;;;;;5.65;4.05;;;;;;;20.41;60.59;96685.22;5136853;27;20051;-61
2022/07/17 00:23:19;;;;;;;5.45;4.53;;;;;;;20.41;61.14;96684.38;5136970;27;20109;-61
2022/07/17 00:25:46;;;;;;;4.82;4.22;;;;;;;20.41;60.89;96682.56;5136919;27;20047;-61
2022/07/17 00:28:14;;;;;;;8.90;4.53;;;;;;;20.42;60.84;96684.25;5136763;27;20046;-61
2022/07/17 00:30:41;;;;;;;7.57;4.43;;;;;;;20.36;60.98;96684.72;5136729;27;20533;-61
2022/07/17 00:33:09;;;;;;;5.50;4.53;;;;;;;20.32;60.83;96686.75;5136665;27;20100;-61
2022/07/17 00:35:36;;;;;;;4.95;4.35;;;;;;;20.33;60.95;96687.63;5136497;27;20043;-61
2022/07/17 00:38:04;;;;;;;6.50;4.28;;;;;;;20.30;61.04;96690.50;5136503;27;20497;-61
2022/07/17 00:40:31;;;;;;;6.85;4.55;;;;;;;20.26;61.09;96681.91;5136586;27;20040;-61
2022/07/17 00:42:58;;;;;;;6.65;4.30;;;;;;;20.20;61.82;96687.69;5136501;27;20495;-60
2022/07/17 00:45:25;;;;;;;5.40;4.40;;;;;;;20.17;61.77;96688.75;5136586;27;20462;-60
2022/07/17 00:47:56;;;;;;;7.57;3.95;;;;;;;20.14;62.02;96685.50;5136342;27;20043;-60
2022/07/17 00:50:27;;;;;;;6.05;4.30;;;;;;;20.10;62.22;96684.88;5136338;27;20050;-61
2022/07/17 00:52:54;;;;;;;4.35;3.95;;;;;;;20.02;62.33;96688.09;5136360;27;20051;-61
2022/07/17 00:55:22;;;;;;;5.25;4.72;;;;;;;19.95;62.46;96687.69;5136211;27;20046;-61
2022/07/17 00:57:51;;;;;;;4.68;4.20;;;;;;;19.86;62.61;96684.88;5136131;27;20138;-61
2022/07/17 01:00:19;;;;;;;8.73;4.35;;;;;;;19.83;62.89;96681.47;5135821;27;20047;-61
2022/07/17 01:02:48;;;;;;;9.35;4.88;;;;;;;19.81;62.47;96687.84;5136115;27;20043;-61
2022/07/17 01:05:16;;;;;;;7.25;4.22;;;;;;;19.78;63.13;96680.94;5136032;27;20043;-61
2022/07/17 01:07:44;;;;;;;5.28;4.65;;;;;;;19.73;63.03;96679.59;5136021;27;20061;-61
2022/07/17 01:10:13;;;;;;;4.60;4.20;;;;;;;19.64;62.99;96678.47;5135904;27;20100;-61
2022/07/17 01:12:41;;;;;;;4.68;4.28;;;;;;;19.59;62.89;96681.44;5135892;27;20074;-61
2022/07/17 01:15:10;;;;;;;5.63;4.32;;;;;;;19.52;63.38;96670.44;5135784;27;20518;-62
2022/07/17 01:17:37;;;;;;;4.97;4.47;;;;;;;19.50;62.95;96679.50;5135738;27;20051;-61
2022/07/17 01:20:05;;;;;;;4.50;4.10;;;;;;;19.47;63.15;96677.88;5135675;27;20484;-61
2022/07/17 01:22:40;;;;;;;9.45;4.43;;;;;;;19.47;63.02;96674.41;5135741;27;20043;-61
2022/07/17 01:25:08;;;;;;;5.35;4.45;;;;;;;19.39;63.34;96683.72;5135772;27;20075;-61
2022/07/17 01:27:35;;;;;;;11.20;4.63;;;;;;;19.31;63.42;96686.97;5135494;27;20492;-61
2022/07/17 01:30:03;;;;;;;7.68;4.53;;;;;;;19.31;63.28;96681.66;5134567;27;20133;-61
2022/07/17 01:32:33;;;;;;;9.85;4.07;;;;;;;19.24;63.65;96687.50;5135460;27;20043;-61
2022/07/17 01:35:00;;;;;;;10.75;3.97;;;;;;;19.17;63.80;96684.41;5135522;27;20112;-61
2022/07/17 01:37:27;;;;;;;6.47;4.53;;;;;;;19.09;64.03;96687.63;5135411;27;20055;-61
2022/07/17 01:39:55;;;;;;;4.40;4.00;;;;;;;18.94;64.04;96687.69;5135311;27;20399;-61
2022/07/17 01:42:22;;;;;;;7.63;4.00;;;;;;;18.86;64.48;96687.41;5135529;27;20046;-61
2022/07/17 01:44:50;;;;;;;6.68;4.75;;;;;;;18.84;64.41;96683.16;5135352;27;20047;-61
2022/07/17 01:47:18;;;;;;;5.97;4.38;;;;;;;18.86;64.54;96679.44;5135232;27;20130;-61
2022/07/17 01:49:46;;;;;;;5.30;3.67;;;;;;;18.92;64.33;96686.13;5135136;27;20116;-61
2022/07/17 01:52:13;;;;;;;5.05;4.45;;;;;;;18.83;64.42;96679.66;5135253;27;20122;-61
2022/07/17 01:54:40;;;;;;;6.78;4.43;;;;;;;18.80;64.40;96680.72;5135008;27;20143;-61
2022/07/17 01:57:10;;;;;;;5.72;3.97;;;;;;;18.79;64.38;96679.00;5135031;27;20055;-61
2022/07/17 01:59:37;;;;;;;4.80;4.40;;;;;;;18.83;64.46;96671.72;5134673;27;20047;-61
2022/07/17 02:02:06;;;;;;;7.03;4.30;;;;;;;18.73;64.44;96676.81;5134997;27;20047;-61
2022/07/17 02:04:33;;;;;;;7.13;4.05;;;;;;;18.73;64.90;96673.31;5134952;27;20130;-61
2022/07/17 02:07:00;;;;;;;5.13;4.20;;;;;;;18.73;64.71;96671.50;5134846;27;20043;-61
2022/07/17 02:09:28;;;;;;;4.70;3.85;;;;;;;18.73;64.82;96673.31;5134757;27;20043;-61
2022/07/17 02:11:55;;;;;;;8.40;4.00;;;;;;;18.71;64.71;96669.91;5134756;27;20457;-61
2022/07/17 02:14:24;;;;;;;4.30;3.88;;;;;;;18.65;64.67;96669.38;5134668;27;20092;-61
2022/07/17 02:16:51;;;;;;;4.07;3.67;;;;;;;18.64;64.95;96673.00;5134605;27;20047;-61
2022/07/17 02:19:18;;;;;;;4.88;4.07;;;;;;;18.62;64.41;96672.25;5134736;27;20074;-61
2022/07/17 02:21:45;;;;;;;7.63;4.03;;;;;;;18.61;64.84;96678.50;5134526;27;20047;-61
2022/07/17 02:24:12;;;;;;;7.47;4.38;;;;;;;18.59;65.13;96677.75;5134463;27;20162;-61
2022/07/17 02:26:40;;;;;;;4.55;4.10;;;;;;;18.58;64.96;96676.06;5134489;27;20051;-61
2022/07/17 02:29:07;;;;;;;6.75;4.03;;;;;;;18.56;64.83;96681.47;5134596;27;20177;-61
2022/07/17 02:31:35;;;;;;;5.93;4.55;;;;;;;18.51;65.20;96682.75;5134504;27;20083;-61
2022/07/17 02:34:02;;;;;;;5.18;4.28;;;;;;;18.49;65.20;96677.53;5134476;27;20100;-61
2022/07/17 02:36:29;;;;;;;4.22;3.80;;;;;;;18.47;65.12;96681.22;5134299;27;20134;-61
2022/07/17 02:38:57;;;;;;;6.13;4.30;;;;;;;18.47;65.22;96681.22;5134388;27;20044;-61
2022/07/17 02:41:24;;;;;;;6.45;4.18;;;;;;;18.44;65.31;96680.50;5133962;27;20115;-61
2022/07/17 02:43:51;;;;;;;5.55;3.78;;;;;;;18.39;65.15;96679.13;5134354;27;20039;-61
2022/07/17 02:46:18;;;;;;;4.75;3.85;;;;;;;18.41;64.95;96678.06;5134236;27;20047;-61
2022/07/17 02:48:47;;;;;;;5.00;3.70;;;;;;;18.43;64.63;96683.25;5134193;27;20099;-61
2022/07/17 02:51:14;;;;;;;3.95;3.40;;;;;;;18.46;64.40;96685.69;5122622;27;20093;-61
2022/07/17 02:53:41;;;;;;;3.63;3.00;;;;;;;18.53;63.19;96686.13;5113809;28;20126;-61
2022/07/17 02:56:08;;;;;;;5.55;2.78;;;;;;;18.66;62.09;96691.44;5113648;28;20066;-61
2022/07/17 02:58:35;;;;;;;5.05;2.95;;;;;;;18.79;60.79;96691.44;5113554;28;20043;-61
2022/07/17 03:01:02;;;;;;;3.40;2.92;;;;;;;18.94;61.21;96693.00;5113233;28;20060;-61
2022/07/17 03:03:31;;;;;;;8.15;2.92;;;;;;;19.08;60.18;96693.03;5113403;28;20127;-61
2022/07/17 03:05:59;;;;;;;3.95;2.63;;;;;;;19.23;59.50;96691.94;5113431;28;20488;-61
2022/07/17 03:08:26;;;;;;;3.72;2.95;;;;;;;19.35;59.21;96692.88;5113469;28;20043;-61
2022/07/17 03:10:53;;;;;;;4.45;2.58;;;;;;;19.43;58.38;96695.84;5113577;28;20043;-61
2022/07/17 03:13:20;;;;;;;7.00;2.85;;;;;;;19.53;58.09;96693.34;5113501;28;20077;-61
2022/07/17 03:15:47;;;;;;;12.57;2.75;;;;;;;19.64;57.93;96699.69;5113469;28;20425;-61
2022/07/17 03:18:14;;;;;;;3.40;2.72;;;;;;;19.79;57.68;96697.72;5113483;28;20083;-61
2022/07/17 03:20:41;;;;;;;9.07;2.80;;;;;;;19.94;56.98;96699.28;5113545;28;20122;-61
2022/07/17 03:23:10;;;;;;;3.38;2.30;;;;;;;20.10;56.19;96698.16;5113435;28;20105;-61
2022/07/17 03:25:38;;;;;;;6.65;2.55;;;;;;;20.18;55.29;96702.88;5113265;28;20044;-61
2022/07/17 03:28:05;;;;;;;2.80;2.25;;;;;;;20.43;53.81;96701.03;5113306;28;20059;-61
2022/07/17 03:30:32;;;;;;;6.18;2.58;;;;;;;20.64;53.50;96700.34;5113330;28;20096;-61
2022/07/17 03:32:59;;;;;;;3.55;2.33;;;;;;;20.76;53.49;96704.72;5113303;28;20082;-61
2022/07/17 03:35:26;;;;;;;4.00;2.63;;;;;;;20.84;53.32;96706.81;5113300;28;20098;-61
2022/07/17 03:37:53;;;;;;;3.85;2.35;;;;;;;20.98;52.85;96696.94;5113093;28;20048;-61
2022/07/17 03:40:21;;;;;;;3.63;2.95;;;;;;;21.06;52.97;96710.47;5113297;28;20488;-61
2022/07/17 03:42:49;;;;;;;4.55;2.30;;;;;;;21.19;52.50;96707.72;5113140;28;20047;-61
2022/07/17 03:45:15;;;;;;;4.38;2.47;;;;;;;21.37;51.62;96712.53;5113245;28;20052;-61
2022/07/17 03:47:42;;;;;;;4.47;2.17;;;;;;;21.56;52.48;96719.91;5113243;28;20067;-61
2022/07/17 03:50:10;;;;;;;5.85;2.53;;;;;;;21.80;50.91;96713.59;5112991;28;20043;-61
2022/07/17 03:52:37;;;;;;;5.40;2.80;;;;;;;22.08;50.20;96720.16;5113358;28;20134;-61
2022/07/17 03:55:05;;;;;;;4.80;2.47;;;;;;;22.45;49.69;96720.72;5116902;28;20052;-61
2022/07/17 03:57:33;;;;;;;5.18;2.25;;;;;;;22.84;48.21;96722.84;5116737;28;20053;-61
2022/07/17 04:00:00;;;;;;;3.50;2.03;;;;;;;23.27;48.06;96720.13;5116645;28;20104;-61
2022/07/17 04:02:28;;;;;;;6.72;2.28;;;;;;;23.62;47.83;96726.03;5116683;28;20485;-61
2022/07/17 04:04:55;;;;;;;3.75;2.60;;;;;;;23.96;47.02;96726.50;5116747;28;20447;-61
2022/07/17 04:07:28;;;;;;;2.72;2.20;;;;;;;24.39;46.11;96731.66;5116579;28;20051;-61
2022/07/17 04:09:57;;;;;;;4.07;2.30;;;;;;;24.80;46.17;96733.31;5116629;28;20054;-61
2022/07/17 04:12:25;;;;;;;3.58;2.25;;;;;;;25.19;44.61;96735.88;5116538;28;20039;-62
2022/07/17 04:14:54;;;;;;;4.10;2.03;;;;;;;25.54;45.67;96738.84;5116541;28;20441;-61
2022/07/17 04:17:21;;;;;;;3.75;2.55;;;;;;;25.89;41.15;96741.81;5116426;28;20060;-61
2022/07/17 04:19:48;;;;;;;2.67;2.30;;;;;;;26.15;41.74;96749.09;5116511;28;20070;-62
2022/07/17 04:22:16;;;;;;;2.33;2.05;;;;;;;26.44;42.37;96747.22;5116370;28;20489;-61
2022/07/17 04:24:43;;;;;;;3.42;2.00;;;;;;;26.69;40.38;96752.78;5116287;28;20522;-62
2022/07/17 04:27:11;;;;;;;5.63;2.38;;;;;;;26.96;39.06;96748.28;5116276;28;20056;-62
2022/07/17 04:29:38;;;;;;;2.75;1.83;;;;;;;27.32;39.23;96755.41;5116366;28;20059;-62
2022/07/17 04:32:07;;;;;;;2.25;2.03;;;;;;;27.66;38.79;96761.84;5116036;28;20047;-62
2022/07/17 04:34:35;;;;;;;3.33;2.03;;;;;;;27.95;36.26;96769.50;5116271;28;20117;-61
2022/07/17 04:37:02;;;;;;;3.05;1.95;;;;;;;27.99;35.22;96764.66;5115920;28;20481;-62
2022/07/17 04:39:30;;;;;;;6.00;1.75;;;;;;;28.14;35.72;96772.88;5115926;28;20047;-62
2022/07/17 04:41:58;;;;;;;3.15;2.00;;;;;;;28.19;35.15;96770.56;5115962;28;20051;-62
2022/07/17 04:44:25;;;;;;;5.72;2.70;;;;;;;28.35;35.68;96771.66;5115901;28;20538;-61
2022/07/17 04:46:52;;;;;;;4.13;2.00;;;;;;;28.58;34.81;96776.34;5115843;28;20047;-61
2022/07/17 04:49:20;;;;;;;4.20;2.00;;;;;;;28.65;34.61;96784.63;5115907;28;20048;-61
2022/07/17 04:51:48;;;;;;;4.22;2.00;;;;;;;28.69;35.23;96792.19;5115790;28;20054;-61
2022/07/17 04:54:15;;;;;;;4.95;1.95;;;;;;;28.91;34.34;96799.72;5115727;28;20044;-62
2022/07/17 04:56:42;;;;;;;2.47;1.98;;;;;;;29.00;32.97;96809.53;5115688;28;20048;-61
2022/07/17 04:59:09;;;;;;;4.13;2.30;;;;;;;29.01;32.48;96805.81;5115709;28;20051;-62
2022/07/17 05:01:37;;;;;;;5.22;2.03;;;;;;;29.09;31.80;96810.34;5115325;28;20495;-61
2022/07/17 05:04:04;;;;;;;2.55;2.10;;;;;;;29.39;31.33;96816.03;5115292;28;20051;-62
2022/07/17 05:06:32;;;;;;;4.40;2.10;;;;;;;29.56;31.45;96818.72;5115432;28;20048;-62
2022/07/17 05:09:01;;;;;;;4.20;2.10;;;;;;;29.88;30.73;96809.69;5115504;28;20055;-62
2022/07/17 05:11:28;;;;;;;2.90;2.28;;;;;;;30.21;31.83;96800.63;5115400;28;20047;-62
2022/07/17 05:13:55;;;;;;;4.47;2.10;;;;;;;30.43;29.67;96802.72;5115371;28;20048;-61
2022/07/17 05:16:22;;;;;;;3.35;2.13;;;;;;;30.42;29.29;96793.75;5115672;28;20051;-62
2022/07/17 05:18:50;;;;;;;5.07;2.17;;;;;;;30.36;28.85;96802.56;5115340;28;20048;-61
2022/07/17 05:21:17;;;;;;;5.25;2.25;;;;;;;30.34;28.13;96813.53;5115270;28;20082;-61
2022/07/17 05:23:45;;;;;;;7.10;2.13;;;;;;;30.10;27.86;96807.22;5115100;28;20040;-62
2022/07/17 05:26:13;;;;;;;6.70;1.80;;;;;;;29.95;28.77;96809.81;5115110;28;20416;-61
2022/07/17 05:28:40;;;;;;;3.20;1.95;;;;;;;30.09;28.24;96810.09;5115153;28;20124;-61
2022/07/17 05:31:07;;;;;;;3.78;1.95;;;;;;;30.14;28.05;96805.03;5115168;28;20044;-61
2022/07/17 05:33:37;;;;;;;5.20;2.10;;;;;;;30.39;27.67;96807.59;5115027;28;20044;-61
2022/07/17 05:36:05;;;;;;;7.53;1.93;;;;;;;30.86;26.67;96811.19;5114935;28;20092;-62
2022/07/17 05:38:32;;;;;;;2.58;2.08;;;;;;;31.24;26.38;96810.34;5114804;28;20048;-61
2022/07/17 05:41:00;;;;;;;2.53;2.00;;;;;;;31.41;26.14;96810.22;5114809;28;20047;-62
2022/07/17 05:43:28;;;;;;;3.58;1.92;;;;;;;31.50;25.85;96808.25;5114894;28;20051;-62
2022/07/17 05:45:55;;;;;;;3.65;1.98;;;;;;;31.83;24.81;96813.28;5114704;28;20047;-61
2022/07/17 05:48:23;;;;;;;5.45;2.28;;;;;;;31.97;25.87;96817.06;5114840;28;20461;-61
2022/07/17 05:50:50;;;;;;;2.42;2.00;;;;;;;31.94;23.71;96820.13;5114598;28;20044;-61
2022/07/17 05:53:18;;;;;;;3.25;1.90;;;;;;;31.77;24.38;96823.00;5114623;28;20048;-61
2022/07/17 05:55:45;;;;;;;5.05;2.05;;;;;;;31.50;24.11;96813.66;5114634;28;20043;-61
2022/07/17 05:58:14;;;;;;;2.78;1.70;;;;;;;31.38;24.94;96819.53;5114248;28;20047;-61
2022/07/17 06:00:41;;;;;;;6.40;1.90;;;;;;;31.46;25.08;96821.31;5114140;28;20087;-61
2022/07/17 06:03:09;;;;;;;3.42;1.92;;;;;;;31.59;25.17;96828.78;5114452;28;20055;-61
2022/07/17 06:05:37;;;;;;;2.08;1.60;;;;;;;31.43;25.31;96816.28;5114211;28;20069;-61
2022/07/17 06:08:04;;;;;;;3.35;1.90;;;;;;;31.75;24.27;96822.34;5114308;28;20485;-61
2022/07/17 06:10:32;;;;;;;5.07;1.75;;;;;;;31.70;23.81;96821.22;5114306;28;20079;-61
2022/07/17 06:12:59;;;;;;;8.75;2.13;;;;;;;31.58;23.92;96826.25;5114323;28;20043;-61
2022/07/17 06:15:28;;;;;;;5.78;1.52;;;;;;;31.81;23.87;96809.94;5113576;28;20043;-61
2022/07/17 06:17:55;;;;;;;3.20;1.85;;;;;;;31.94;23.88;96811.16;5113941;28;20051;-61
2022/07/17 06:20:23;;;;;;;6.97;1.58;;;;;;;31.70;22.63;96810.41;5113960;28;20480;-61
2022/07/17 06:22:50;;;;;;;7.07;2.13;;;;;;;31.61;24.29;96810.50;5113945;28;20069;-61
2022/07/17 06:25:17;;;;;;;2.83;1.85;;;;;;;31.48;23.40;96803.03;5114050;28;20503;-61
2022/07/17 06:27:44;;;;;;;6.93;1.70;;;;;;;31.19;23.91;96811.91;5113958;28;20047;-61
2022/07/17 06:30:15;;;;;;;5.40;1.83;;;;;;;31.23;24.24;96810.53;5113973;28;20051;-61
2022/07/17 06:32:45;;;;;;;3.20;1.77;;;;;;;31.12;24.33;96804.53;5113768;28;20135;-61
2022/07/17 06:35:13;;;;;;;6.32;1.88;;;;;;;31.18;23.66;96807.53;5113813;28;20047;-61
2022/07/17 06:37:40;;;;;;;4.55;1.70;;;;;;;31.23;24.39;96815.91;5113598;28;20043;-61
2022/07/17 06:40:08;;;;;;;3.78;1.88;;;;;;;31.08;24.56;96819.44;5113710;28;20477;-61
2022/07/17 06:42:35;;;;;;;3.80;2.15;;;;;;;30.72;23.77;96806.53;5113749;28;20043;-62
2022/07/17 06:45:03;;;;;;;6.28;2.00;;;;;;;30.56;24.65;96810.19;5113874;28;20062;-61
2022/07/17 06:47:30;;;;;;;3.55;1.55;;;;;;;30.43;24.68;96818.91;5113734;28;20058;-61
2022/07/17 06:49:59;;;;;;;4.35;1.98;;;;;;;30.43;24.21;96814.31;5113698;28;20097;-61
2022/07/17 06:52:27;;;;;;;2.25;1.55;;;;;;;30.43;24.48;96822.41;5113550;28;20082;-61
2022/07/17 06:54:54;;;;;;;3.03;1.70;;;;;;;30.52;24.48;96818.66;5113649;28;20047;-61
2022/07/17 06:57:21;;;;;;;4.90;1.80;;;;;;;30.54;24.62;96825.72;5113546;28;20044;-61
2022/07/17 06:59:49;;;;;;;5.90;1.92;;;;;;;30.99;24.53;96813.28;5113161;28;20064;-61
2022/07/17 07:02:17;;;;;;;6.25;1.83;;;;;;;31.41;23.69;96812.91;5113559;28;20550;-61
2022/07/17 07:04:44;;;;;;;9.75;1.75;;;;;;;31.86;23.84;96814.78;5113533;28;20044;-61
2022/07/17 07:07:13;;;;;;;6.88;1.80;;;;;;;31.46;23.04;96815.06;5113474;28;20051;-61
2022/07/17 07:09:40;;;;;;;3.40;1.63;;;;;;;31.21;23.44;96809.88;5113387;28;20130;-61
2022/07/17 07:12:07;;;;;;;4.05;1.88;;;;;;;31.29;23.63;96815.19;5113298;28;20043;-61
2022/07/17 07:14:35;;;;;;;3.88;2.08;;;;;;;31.44;22.99;96822.50;5113500;28;20044;-61
2022/07/17 07:17:02;;;;;;;7.72;1.70;;;;;;;31.42;24.07;96817.28;5113593;28;20051;-61
2022/07/17 07:19:29;;;;;;;8.30;1.60;;;;;;;31.92;22.87;96824.00;5113361;28;20051;-61
2022/07/17 07:21:56;;;;;;;4.15;1.63;;;;;;;32.24;22.24;96824.66;5113341;28;20390;-61
2022/07/17 07:24:25;;;;;;;4.15;1.60;;;;;;;32.43;20.82;96817.78;5113333;28;20469;-62
2022/07/17 07:26:53;;;;;;;4.05;1.88;;;;;;;32.63;21.52;96825.31;5114055;28;20078;-61
2022/07/17 07:29:20;;;;;;;1.90;1.45;;;;;;;32.69;21.72;96827.25;5117413;28;20455;-61
2022/07/17 07:31:47;;;;;;;4.13;1.80;;;;;;;32.49;22.21;96827.88;5117340;28;20040;-61
2022/07/17 07:34:14;;;;;;;6.75;1.80;;;;;;;32.52;21.18;96832.06;5117284;28;20455;-62
2022/07/17 07:36:41;;;;;;;6.75;1.98;;;;;;;32.53;21.44;96829.16;5117212;28;20051;-61
2022/07/17 07:39:09;;;;;;;4.40;1.77;;;;;;;32.47;21.50;96829.88;5117196;28;20051;-62
2022/07/17 07:41:38;;;;;;;8.45;1.77;;;;;;;32.03;21.55;96837.09;5117119;28;20059;-61
2022/07/17 07:44:06;;;;;;;5.70;1.75;;;;;;;32.16;21.01;96836.41;5117238;28;20047;-61
2022/07/17 07:46:35;;;;;;;6.65;1.77;;;;;;;32.14;21.02;96835.75;5117150;28;20126;-61
2022/07/17 07:49:02;;;;;;;2.40;1.60;;;;;;;32.17;21.48;96831.84;5117041;28;20039;-61
2022/07/17 07:51:30;;;;;;;7.03;1.98;;;;;;;32.31;21.11;96839.09;5116959;28;20105;-62
2022/07/17 07:53:57;;;;;;;4.57;1.85;;;;;;;32.47;22.00;96838.00;5116977;28;20059;-62
2022/07/17 07:56:24;;;;;;;2.85;1.83;;;;;;;32.86;20.78;96845.91;5116862;28;20119;-61
2022/07/17 07:58:53;;;;;;;4.13;1.50;;;;;;;33.12;20.79;96848.09;5116749;28;20047;-61
2022/07/17 08:01:20;;;;;;;4.90;2.30;;;;;;;33.08;21.17;96856.78;5116542;28;20052;-61
2022/07/17 08:03:47;;;;;;;4.90;1.90;;;;;;;33.51;21.24;96847.75;5116813;28;20082;-61
2022/07/17 08:06:15;;;;;;;2.60;1.60;;;;;;;33.65;19.41;96859.56;5116686;28;20043;-61
2022/07/17 08:08:42;;;;;;;2.38;1.50;;;;;;;33.28;19.60;96857.78;5116692;28;20095;-62
2022/07/17 08:11:10;;;;;;;4.93;1.80;;;;;;;33.18;20.52;96846.47;5116718;28;20437;-61
2022/07/17 08:13:37;;;;;;;6.20;2.13;;;;;;;33.00;19.61;96863.13;5116565;28;20051;-61
2022/07/17 08:16:07;;;;;;;5.38;2.10;;;;;;;32.58;20.49;96862.94;5116377;28;20044;-62
2022/07/17 08:18:35;;;;;;;1.77;1.58;;;;;;;32.44;20.31;96872.75;5116277;28;20043;-61
2022/07/17 08:21:03;;;;;;;3.22;1.60;;;;;;;32.70;20.23;96866.81;5116361;28;20043;-62
2022/07/17 08:23:30;;;;;;;6.47;1.80;;;;;;;32.82;20.19;96869.00;5116311;28;20148;-62
2022/07/17 08:25:57;;;;;;;7.15;1.73;;;;;;;32.77;20.59;96881.25;5116350;28;20050;-61
2022/07/17 08:28:25;;;;;;;6.78;1.35;;;;;;;32.77;20.16;96873.13;5116258;28;20096;-62
2022/07/17 08:30:52;;;;;;;3.50;1.73;;;;;;;32.86;19.80;96878.41;5116226;28;20044;-62
2022/07/17 08:33:20;;;;;;;2.90;1.42;;;;;;;32.92;19.40;96863.28;5116111;28;20047;-62
2022/07/17 08:35:48;;;;;;;6.15;1.80;;;;;;;33.01;19.09;96868.38;5116213;28;20039;-62
2022/07/17 08:38:15;;;;;;;4.43;1.67;;;;;;;33.09;18.70;96874.72;5115706;28;20048;-62
2022/07/17 08:40:47;;;;;;;3.00;1.80;;;;;;;33.15;19.23;96882.06;5115931;28;20131;-62
2022/07/17 08:43:15;;;;;;;4.65;1.65;;;;;;;33.08;19.66;96870.34;5115867;28;20043;-62
2022/07/17 08:45:42;;;;;;;2.92;1.50;;;;;;;33.27;18.91;96876.97;5116144;28;20504;-62
2022/07/17 08:48:16;;;;;;;2.15;1.65;;;;;;;33.33;19.29;96881.59;5115910;28;20052;-62
2022/07/17 08:50:45;;;;;;;1.85;1.60;;;;;;;33.56;19.41;96876.97;5115834;28;20073;-62
2022/07/17 08:53:13;;;;;;;2.20;1.60;;;;;;;33.68;18.39;96863.75;5115882;28;20048;-61
2022/07/17 08:55:41;;;;;;;2.13;1.73;;;;;;;33.51;18.99;96878.41;5115797;28;20199;-61
2022/07/17 08:58:08;;;;;;;4.88;1.92;;;;;;;33.24;19.37;96863.78;5115511;28;20050;-61
2022/07/17 09:00:36;;;;;;;4.35;1.80;;;;;;;33.25;18.45;96882.56;5115430;28;20083;-62
2022/07/17 09:03:06;;;;;;;8.20;1.85;;;;;;;33.52;18.81;96882.78;5115628;28;20043;-61
2022/07/17 09:05:36;;;;;;;2.30;1.65;;;;;;;33.71;18.24;96876.91;5115701;28;20055;-61
2022/07/17 09:08:05;;;;;;;4.30;1.65;;;;;;;34.00;19.43;96875.81;5115601;28;20056;-62
2022/07/17 09:10:36;;;;;;;2.38;1.70;;;;;;;34.20;18.30;96885.97;5115482;28;20055;-62
2022/07/17 09:13:15;;;;;;;2.38;1.65;;;;;;;33.87;18.35;96879.28;5115400;28;20446;-62
2022/07/17 09:15:42;;;;;;;5.28;1.75;;;;;;;33.76;19.09;96883.41;5115377;28;20077;-62
2022/07/17 09:18:09;;;;;;;5.38;1.50;;;;;;;33.75;18.49;96878.16;5115206;28;20504;-62
2022/07/17 09:20:45;;;;;;;2.22;1.50;;;;;;;33.97;18.57;96888.91;5115357;28;20044;-62
2022/07/17 09:23:14;;;;;;;3.75;1.52;;;;;;;33.65;18.20;96878.53;5115253;28;20067;-62
2022/07/17 09:25:43;;;;;;;4.70;2.47;;;;;;;33.67;18.13;96881.03;5115220;28;20508;-62
2022/07/17 09:28:13;;;;;;;2.38;1.63;;;;;;;33.53;18.36;96876.31;5115202;28;20477;-62
2022/07/17 09:30:42;;;;;;;7.53;1.50;;;;;;;33.59;19.05;96874.72;5115021;28;20093;-62
2022/07/17 09:33:14;;;;;;;3.05;1.90;;;;;;;33.56;19.49;96876.97;5114892;28;20109;-62
2022/07/17 09:35:49;;;;;;;2.05;1.67;;;;;;;32.69;19.93;96875.13;5114834;28;20058;-62
2022/07/17 09:38:29;;;;;;;3.95;1.80;;;;;;;32.75;20.18;96877.06;5114833;28;20055;-62
2022/07/17 09:41:15;;;;;;;2.65;1.70;;;;;;;32.94;19.78;96889.13;5114898;28;20086;-62
2022/07/17 09:43:45;;;;;;;7.05;1.92;;;;;;;32.83;20.83;96874.22;5114674;28;20563;-62
2022/07/17 09:46:13;;;;;;;;;;;;;;;33.01;20.38;96875.63;5115184;28;20126;-62
2022/07/17 09:48:47;;;;;;;2.55;2.17;;;;;;;33.03;21.07;96885.28;5114701;28;19923;-62
2022/07/17 09:51:17;;;;;;;6.00;1.92;;;;;;;33.22;20.86;96874.81;5113795;28;20404;-62
2022/07/17 09:53:49;;;;;;;2.90;1.95;;;;;;;33.26;20.10;96870.69;5114558;28;20044;-62
2022/07/17 09:56:19;;;;;;;7.07;2.28;;;;;;;33.29;20.23;96869.47;5114516;28;20055;-61
2022/07/17 09:58:50;;;;;;;5.00;2.17;;;;;;;33.33;21.07;96878.03;5114444;28;20087;-61
2022/07/17 10:01:18;;;;;;;2.65;2.10;;;;;;;33.45;19.88;96879.19;5114238;28;20105;-62
2022/07/17 10:03:48;;;;;;;4.35;2.45;;;;;;;33.29;19.97;96874.91;5114357;28;20397;-62
2022/07/17 10:06:16;;;;;;;4.32;1.83;;;;;;;33.45;19.99;96881.91;5114261;28;20048;-61
2022/07/17 10:08:43;;;;;;;5.70;1.70;;;;;;;33.43;19.69;96881.25;5114291;28;20053;-61
2022/07/17 10:11:15;;;;;;;8.07;2.30;;;;;;;33.34;20.65;96860.75;5114184;28;20047;-62
2022/07/17 10:13:46;;;;;;;4.03;1.75;;;;;;;33.30;21.07;96876.56;5114150;28;20048;-61
2022/07/17 10:16:14;;;;;;;10.60;2.13;;;;;;;33.35;20.52;96878.69;5114241;28;20485;-62
2022/07/17 10:18:43;;;;;;;6.15;1.90;;;;;;;33.39;20.29;96869.13;5114048;28;20044;-62
2022/07/17 10:21:15;;;;;;;4.28;1.80;;;;;;;33.15;19.91;96869.38;5114020;28;20130;-62
2022/07/17 10:23:44;;;;;;;4.65;2.15;;;;;;;33.17;20.48;96871.03;5114045;28;20044;-62
2022/07/17 10:26:13;;;;;;;6.60;2.42;;;;;;;33.16;20.89;96872.88;5113950;28;20123;-62
2022/07/17 10:28:44;;;;;;;5.57;2.15;;;;;;;33.24;21.29;96869.22;5113979;28;20048;-62
2022/07/17 10:31:23;;;;;;;3.53;1.92;;;;;;;33.37;21.01;96866.63;5113967;28;20039;-62
2022/07/17 10:33:57;;;;;;;3.33;1.92;;;;;;;33.49;20.77;96876.91;5114038;28;20047;-62
2022/07/17 10:36:34;;;;;;;5.57;1.90;;;;;;;33.28;21.76;96863.22;5114035;28;20131;-62
2022/07/17 10:39:13;;;;;;;6.35;2.88;;;;;;;33.28;21.52;96865.06;5113712;28;20047;-62
2022/07/17 10:41:43;;;;;;;4.22;2.20;;;;;;;33.29;21.09;96869.47;5113818;28;20082;-62
2022/07/17 10:44:11;;;;;;;7.40;2.05;;;;;;;33.27;21.63;96848.00;5113794;28;20043;-62
2022/07/17 10:46:38;;;;;;;3.13;1.60;;;;;;;33.27;21.69;96855.28;5113643;28;20493;-62
2022/07/17 10:49:05;;;;;;;4.07;2.10;;;;;;;33.38;22.00;96852.03;5113734;28;20058;-62
2022/07/17 10:51:34;;;;;;;3.83;2.03;;;;;;;33.46;22.00;96855.63;5113829;28;20058;-62
2022/07/17 10:54:05;;;;;;;2.65;1.75;;;;;;;33.35;21.36;96854.31;5113658;28;20393;-61
2022/07/17 10:56:32;;;;;;;3.03;2.05;;;;;;;33.30;21.22;96843.19;5113455;28;20047;-62
2022/07/17 10:59:04;;;;;;;4.60;2.15;;;;;;;33.42;21.81;96849.75;5113324;28;20363;-62
2022/07/17 11:01:31;;;;;;;8.50;1.90;;;;;;;33.43;21.50;96846.00;5112957;28;20070;-62
2022/07/17 11:04:00;;;;;;;2.17;1.90;;;;;;;33.08;21.28;96849.47;5113605;28;20047;-62
2022/07/17 11:06:30;;;;;;;6.22;1.80;;;;;;;32.98;21.18;96847.09;5113548;28;20054;-61
2022/07/17 11:08:58;;;;;;;3.95;1.90;;;;;;;32.92;21.16;96837.03;5113451;28;20047;-61
2022/07/17 11:11:37;;;;;;;2.80;1.70;;;;;;;33.05;21.44;96838.22;5113285;28;20056;-61
2022/07/17 11:14:14;;;;;;;3.55;1.90;;;;;;;33.07;21.53;96845.09;5113360;28;20480;-61
2022/07/17 11:16:46;;;;;;;2.45;1.80;;;;;;;33.17;21.94;96835.81;5113303;28;20090;-61
2022/07/17 11:19:22;;;;;;;2.78;1.90;;;;;;;33.15;22.13;96826.03;5113463;28;20149;-61
2022/07/17 11:21:50;;;;;;;3.90;1.73;;;;;;;33.17;21.29;96823.13;5113295;28;20052;-62
2022/07/17 11:24:18;;;;;;;2.78;1.77;;;;;;;33.31;21.14;96815.09;5113346;28;20079;-62
2022/07/17 11:26:46;;;;;;;3.28;1.85;;;;;;;33.16;21.17;96829.53;5113208;28;20047;-61
2022/07/17 11:29:15;;;;;;;2.35;1.92;;;;;;;33.26;21.54;96824.63;5113201;28;20050;-62
2022/07/17 11:31:43;;;;;;;1.77;1.52;;;;;;;33.25;20.94;96830.25;5113273;28;20089;-62
2022/07/17 11:34:12;;;;;;;5.97;1.92;;;;;;;32.93;21.15;96832.47;5113274;28;20047;-61
2022/07/17 11:36:41;;;;;;;3.80;1.70;;;;;;;32.93;22.44;96817.06;5113193;28;20043;-62
2022/07/17 11:39:11;;;;;;;4.07;2.00;;;;;;;33.02;20.73;96815.03;5113118;28;20054;-61